sensor_id;sensor_type;location;lat;lon;timestamp;pressure;altitude;pressure_sealevel;temperature
77728;BMP280;68312;53.502;10.030;2023-04-01T00:01:00;99757.06;;;9.96
77728;BMP280;68312;53.502;10.030;2023-04-01T00:03:28;99751.44;;;9.97
77728;BMP280;68312;53.502;10.030;2023-04-01T00:05:56;99753.66;;;9.95
77728;BMP280;68312;53.502;10.030;2023-04-01T00:08:24;99748.41;;;9.95
77728;BMP280;68312;53.502;10.030;2023-04-01T00:10:52;99753.22;;;9.93
77728;BMP280;68312;53.502;10.030;2023-04-01T00:13:19;99753.56;;;9.92
77728;BMP280;68312;53.502;10.030;2023-04-01T00:15:45;99753.13;;;9.90
77728;BMP280;68312;53.502;10.030;2023-04-01T00:18:12;99755.72;;;9.90
77728;BMP280;68312;53.502;10.030;2023-04-01T00:20:38;99756.81;;;9.89
77728;BMP280;68312;53.502;10.030;2023-04-01T00:23:07;99758.34;;;9.90
77728;BMP280;68312;53.502;10.030;2023-04-01T00:25:33;99756.41;;;9.87
77728;BMP280;68312;53.502;10.030;2023-04-01T00:27:58;99755.66;;;9.86
77728;BMP280;68312;53.502;10.030;2023-04-01T00:30:24;99751.06;;;9.84
77728;BMP280;68312;53.502;10.030;2023-04-01T00:32:53;99760.78;;;9.83
77728;BMP280;68312;53.502;10.030;2023-04-01T00:35:19;99757.38;;;9.83
77728;BMP280;68312;53.502;10.030;2023-04-01T00:37:45;99755.53;;;9.83
77728;BMP280;68312;53.502;10.030;2023-04-01T00:40:24;99750.31;;;9.83
77728;BMP280;68312;53.502;10.030;2023-04-01T00:42:55;99743.81;;;9.81
77728;BMP280;68312;53.502;10.030;2023-04-01T00:48:10;99750.22;;;9.80
77728;BMP280;68312;53.502;10.030;2023-04-01T00:50:44;99744.53;;;9.78
77728;BMP280;68312;53.502;10.030;2023-04-01T00:53:17;99755.00;;;9.78
77728;BMP280;68312;53.502;10.030;2023-04-01T00:55:52;99743.31;;;9.75
77728;BMP280;68312;53.502;10.030;2023-04-01T00:58:39;99748.13;;;9.73
77728;BMP280;68312;53.502;10.030;2023-04-01T01:01:16;99752.19;;;9.71
77728;BMP280;68312;53.502;10.030;2023-04-01T01:03:42;99756.22;;;9.68
77728;BMP280;68312;53.502;10.030;2023-04-01T01:06:15;99755.34;;;9.64
77728;BMP280;68312;53.502;10.030;2023-04-01T01:09:43;99758.63;;;9.61
77728;BMP280;68312;53.502;10.030;2023-04-01T01:12:55;99754.19;;;9.62
77728;BMP280;68312;53.502;10.030;2023-04-01T01:15:56;99755.66;;;9.63
77728;BMP280;68312;53.502;10.030;2023-04-01T01:24:41;99753.81;;;9.63
77728;BMP280;68312;53.502;10.030;2023-04-01T01:28:15;99763.66;;;9.66
77728;BMP280;68312;53.502;10.030;2023-04-01T01:31:28;99757.63;;;9.66
77728;BMP280;68312;53.502;10.030;2023-04-01T01:37:41;99756.22;;;9.68
77728;BMP280;68312;53.502;10.030;2023-04-01T01:40:11;99759.16;;;9.67
77728;BMP280;68312;53.502;10.030;2023-04-01T01:42:43;99755.00;;;9.66
77728;BMP280;68312;53.502;10.030;2023-04-01T01:45:17;99760.69;;;9.68
77728;BMP280;68312;53.502;10.030;2023-04-01T01:47:49;99763.31;;;9.68
77728;BMP280;68312;53.502;10.030;2023-04-01T01:50:17;99761.91;;;9.70
77728;BMP280;68312;53.502;10.030;2023-04-01T01:52:44;99759.31;;;9.70
77728;BMP280;68312;53.502;10.030;2023-04-01T01:55:30;99770.84;;;9.69
77728;BMP280;68312;53.502;10.030;2023-04-01T01:58:04;99763.31;;;9.68
77728;BMP280;68312;53.502;10.030;2023-04-01T02:00:42;99763.31;;;9.68
77728;BMP280;68312;53.502;10.030;2023-04-01T02:03:15;99762.88;;;9.66
77728;BMP280;68312;53.502;10.030;2023-04-01T02:05:44;99766.28;;;9.66
77728;BMP280;68312;53.502;10.030;2023-04-01T02:08:13;99755.66;;;9.63
77728;BMP280;68312;53.502;10.030;2023-04-01T02:10:57;99768.44;;;9.64
77728;BMP280;68312;53.502;10.030;2023-04-01T02:13:32;99770.66;;;9.62
77728;BMP280;68312;53.502;10.030;2023-04-01T02:16:08;99772.16;;;9.63
77728;BMP280;68312;53.502;10.030;2023-04-01T02:18:48;99763.88;;;9.61
77728;BMP280;68312;53.502;10.030;2023-04-01T02:21:20;99771.38;;;9.63
77728;BMP280;68312;53.502;10.030;2023-04-01T02:23:52;99770.28;;;9.64
77728;BMP280;68312;53.502;10.030;2023-04-01T02:26:23;99768.03;;;9.62
77728;BMP280;68312;53.502;10.030;2023-04-01T02:28:52;99771.16;;;9.68
77728;BMP280;68312;53.502;10.030;2023-04-01T02:31:21;99777.53;;;9.67
77728;BMP280;68312;53.502;10.030;2023-04-01T02:33:49;99768.78;;;9.63
77728;BMP280;68312;53.502;10.030;2023-04-01T02:36:15;99780.38;;;9.62
77728;BMP280;68312;53.502;10.030;2023-04-01T02:38:44;99771.28;;;9.59
77728;BMP280;68312;53.502;10.030;2023-04-01T02:41:13;99788.56;;;9.60
77728;BMP280;68312;53.502;10.030;2023-04-01T02:43:39;99783.31;;;9.60
77728;BMP280;68312;53.502;10.030;2023-04-01T02:46:04;99780.69;;;9.60
77728;BMP280;68312;53.502;10.030;2023-04-01T02:48:30;99782.56;;;9.60
77728;BMP280;68312;53.502;10.030;2023-04-01T02:50:56;99789.31;;;9.61
77728;BMP280;68312;53.502;10.030;2023-04-01T02:53:22;99786.38;;;9.62
77728;BMP280;68312;53.502;10.030;2023-04-01T02:55:47;99796.13;;;9.62
77728;BMP280;68312;53.502;10.030;2023-04-01T02:58:15;99791.94;;;9.61
77728;BMP280;68312;53.502;10.030;2023-04-01T03:00:42;99794.88;;;9.59
77728;BMP280;68312;53.502;10.030;2023-04-01T03:03:08;99793.81;;;9.60
77728;BMP280;68312;53.502;10.030;2023-04-01T03:05:34;99791.50;;;9.59
77728;BMP280;68312;53.502;10.030;2023-04-01T03:08:00;99801.97;;;9.59
77728;BMP280;68312;53.502;10.030;2023-04-01T03:10:26;99802.75;;;9.59
77728;BMP280;68312;53.502;10.030;2023-04-01T03:12:51;99801.66;;;9.60
77728;BMP280;68312;53.502;10.030;2023-04-01T03:15:17;99801.66;;;9.60
77728;BMP280;68312;53.502;10.030;2023-04-01T03:17:43;99807.97;;;9.59
77728;BMP280;68312;53.502;10.030;2023-04-01T03:20:09;99803.53;;;9.60
77728;BMP280;68312;53.502;10.030;2023-04-01T03:22:36;99805.81;;;9.61
77728;BMP280;68312;53.502;10.030;2023-04-01T03:25:04;99802.75;;;9.59
77728;BMP280;68312;53.502;10.030;2023-04-01T03:27:32;99814.00;;;9.60
77728;BMP280;68312;53.502;10.030;2023-04-01T03:29:59;99803.53;;;9.60
77728;BMP280;68312;53.502;10.030;2023-04-01T03:32:25;99802.75;;;9.59
77728;BMP280;68312;53.502;10.030;2023-04-01T03:34:52;99803.84;;;9.58
77728;BMP280;68312;53.502;10.030;2023-04-01T03:37:17;99809.09;;;9.58
77728;BMP280;68312;53.502;10.030;2023-04-01T03:39:43;99805.03;;;9.61
77728;BMP280;68312;53.502;10.030;2023-04-01T03:42:08;99809.22;;;9.62
77728;BMP280;68312;53.502;10.030;2023-04-01T03:44:34;99812.22;;;9.64
77728;BMP280;68312;53.502;10.030;2023-04-01T03:47:00;99818.25;;;9.64
77728;BMP280;68312;53.502;10.030;2023-04-01T03:49:26;99814.09;;;9.63
77728;BMP280;68312;53.502;10.030;2023-04-01T03:51:52;99820.97;;;9.68
77728;BMP280;68312;53.502;10.030;2023-04-01T03:54:17;99821.63;;;9.65
77728;BMP280;68312;53.502;10.030;2023-04-01T03:56:45;99824.69;;;9.67
77728;BMP280;68312;53.502;10.030;2023-04-01T03:59:11;99826.88;;;9.65
77728;BMP280;68312;53.502;10.030;2023-04-01T04:01:37;99829.94;;;9.67
77728;BMP280;68312;53.502;10.030;2023-04-01T04:04:02;99826.88;;;9.65
77728;BMP280;68312;53.502;10.030;2023-04-01T04:06:29;99829.06;;;9.63
77728;BMP280;68312;53.502;10.030;2023-04-01T04:08:54;99823.50;;;9.64
77728;BMP280;68312;53.502;10.030;2023-04-01T04:11:21;99832.81;;;9.62
77728;BMP280;68312;53.502;10.030;2023-04-01T04:13:47;99831.25;;;9.61
77728;BMP280;68312;53.502;10.030;2023-04-01T04:16:14;99832.03;;;9.61
77728;BMP280;68312;53.502;10.030;2023-04-01T04:18:41;99829.81;;;9.63
77728;BMP280;68312;53.502;10.030;2023-04-01T04:21:12;99834.28;;;9.63
77728;BMP280;68312;53.502;10.030;2023-04-01T04:23:39;99841.00;;;9.60
77728;BMP280;68312;53.502;10.030;2023-04-01T04:26:09;99839.88;;;9.61
77728;BMP280;68312;53.502;10.030;2023-04-01T04:28:38;99841.75;;;9.61
77728;BMP280;68312;53.502;10.030;2023-04-01T04:31:04;99843.28;;;9.62
77728;BMP280;68312;53.502;10.030;2023-04-01T04:33:31;99847.75;;;9.61
77728;BMP280;68312;53.502;10.030;2023-04-01T04:35:58;99848.53;;;9.62
77728;BMP280;68312;53.502;10.030;2023-04-01T04:38:25;99845.91;;;9.62
77728;BMP280;68312;53.502;10.030;2023-04-01T04:40:51;99853.41;;;9.63
77728;BMP280;68312;53.502;10.030;2023-04-01T04:43:18;99857.16;;;9.62
77728;BMP280;68312;53.502;10.030;2023-04-01T04:45:44;99857.88;;;9.63
77728;BMP280;68312;53.502;10.030;2023-04-01T04:48:11;99862.81;;;9.64
77728;BMP280;68312;53.502;10.030;2023-04-01T04:50:44;99861.72;;;9.65
77728;BMP280;68312;53.502;10.030;2023-04-01T04:53:12;99859.41;;;9.64
77728;BMP280;68312;53.502;10.030;2023-04-01T04:55:47;99861.28;;;9.63
77728;BMP280;68312;53.502;10.030;2023-04-01T04:58:16;99865.44;;;9.64
77728;BMP280;68312;53.502;10.030;2023-04-01T05:00:42;99866.19;;;9.65
77728;BMP280;68312;53.502;10.030;2023-04-01T05:03:08;99869.88;;;9.64
77728;BMP280;68312;53.502;10.030;2023-04-01T05:05:34;99872.50;;;9.64
77728;BMP280;68312;53.502;10.030;2023-04-01T05:08:00;99878.34;;;9.69
77728;BMP280;68312;53.502;10.030;2023-04-01T05:10:26;99877.88;;;9.67
77728;BMP280;68312;53.502;10.030;2023-04-01T05:12:51;99880.19;;;9.69
77728;BMP280;68312;53.502;10.030;2023-04-01T05:15:17;99885.75;;;9.67
77728;BMP280;68312;53.502;10.030;2023-04-01T05:17:42;99878.78;;;9.71
77728;BMP280;68312;53.502;10.030;2023-04-01T05:20:08;99884.34;;;9.70
77728;BMP280;68312;53.502;10.030;2023-04-01T05:22:34;99885.13;;;9.70
77728;BMP280;68312;53.502;10.030;2023-04-01T05:25:00;99889.69;;;9.73
77728;BMP280;68312;53.502;10.030;2023-04-01T05:27:25;99892.31;;;9.73
77728;BMP280;68312;53.502;10.030;2023-04-01T05:29:51;99893.81;;;9.74
77728;BMP280;68312;53.502;10.030;2023-04-01T05:32:16;99896.44;;;9.74
77728;BMP280;68312;53.502;10.030;2023-04-01T05:34:42;99899.88;;;9.75
77728;BMP280;68312;53.502;10.030;2023-04-01T05:37:08;99898.31;;;9.74
77728;BMP280;68312;53.502;10.030;2023-04-01T05:39:37;99906.31;;;9.77
77728;BMP280;68312;53.502;10.030;2023-04-01T05:42:05;99904.75;;;9.76
77728;BMP280;68312;53.502;10.030;2023-04-01T05:44:32;99904.44;;;9.78
77728;BMP280;68312;53.502;10.030;2023-04-01T05:46:58;99899.97;;;9.78
77728;BMP280;68312;53.502;10.030;2023-04-01T05:49:24;99910.16;;;9.80
77728;BMP280;68312;53.502;10.030;2023-04-01T05:51:50;99916.13;;;9.80
77728;BMP280;68312;53.502;10.030;2023-04-01T05:54:16;99914.38;;;9.84
77728;BMP280;68312;53.502;10.030;2023-04-01T05:56:43;99925.63;;;9.84
77728;BMP280;68312;53.502;10.030;2023-04-01T05:59:10;99921.50;;;9.84
77728;BMP280;68312;53.502;10.030;2023-04-01T06:01:36;99927.94;;;9.86
77728;BMP280;68312;53.502;10.030;2023-04-01T06:04:01;99927.91;;;9.74
77728;BMP280;68312;53.502;10.030;2023-04-01T06:06:28;99935.97;;;9.57
77728;BMP280;68312;53.502;10.030;2023-04-01T06:09:12;99938.47;;;9.42
77728;BMP280;68312;53.502;10.030;2023-04-01T06:12:18;99943.25;;;9.28
77728;BMP280;68312;53.502;10.030;2023-04-01T06:21:44;99963.13;;;8.89
77728;BMP280;68312;53.502;10.030;2023-04-01T06:27:49;99967.56;;;8.68
77728;BMP280;68312;53.502;10.030;2023-04-01T06:30:50;99978.09;;;8.60
77728;BMP280;68312;53.502;10.030;2023-04-01T06:39:43;99988.25;;;8.33
77728;BMP280;68312;53.502;10.030;2023-04-01T06:48:55;99998.16;;;8.19
77728;BMP280;68312;53.502;10.030;2023-04-01T06:54:44;100006.78;;;8.11
77728;BMP280;68312;53.502;10.030;2023-04-01T07:00:01;100028.50;;;8.04
77728;BMP280;68312;53.502;10.030;2023-04-01T07:02:48;100023.28;;;8.04
77728;BMP280;68312;53.502;10.030;2023-04-01T07:05:24;100027.44;;;8.05
77728;BMP280;68312;53.502;10.030;2023-04-01T07:07:57;100033.59;;;8.00
77728;BMP280;68312;53.502;10.030;2023-04-01T07:10:43;100037.16;;;7.96
77728;BMP280;68312;53.502;10.030;2023-04-01T07:13:28;100038.66;;;7.88
77728;BMP280;68312;53.502;10.030;2023-04-01T07:16:08;100045.47;;;7.89
77728;BMP280;68312;53.502;10.030;2023-04-01T07:18:57;100052.22;;;7.82
77728;BMP280;68312;53.502;10.030;2023-04-01T07:21:45;100057.47;;;7.74
77728;BMP280;68312;53.502;10.030;2023-04-01T07:24:32;100072.06;;;7.66
77728;BMP280;68312;53.502;10.030;2023-04-01T07:27:05;100078.72;;;7.64
77728;BMP280;68312;53.502;10.030;2023-04-01T07:29:35;100075.31;;;7.63
77728;BMP280;68312;53.502;10.030;2023-04-01T07:32:15;100072.22;;;7.70
77728;BMP280;68312;53.502;10.030;2023-04-01T07:38:14;100088.06;;;7.65
77728;BMP280;68312;53.502;10.030;2023-04-01T07:41:10;100102.03;;;7.60
77728;BMP280;68312;53.502;10.030;2023-04-01T07:44:46;100096.97;;;7.47
77728;BMP280;68312;53.502;10.030;2023-04-01T07:50:36;100112.97;;;7.54
77728;BMP280;68312;53.502;10.030;2023-04-01T07:53:26;100113.56;;;7.59
77728;BMP280;68312;53.502;10.030;2023-04-01T07:56:25;100124.94;;;7.55
77728;BMP280;68312;53.502;10.030;2023-04-01T08:02:24;100140.16;;;7.53
77728;BMP280;68312;53.502;10.030;2023-04-01T08:05:27;100141.69;;;7.54
77728;BMP280;68312;53.502;10.030;2023-04-01T08:08:32;100132.94;;;7.58
77728;BMP280;68312;53.502;10.030;2023-04-01T08:20:07;100161.06;;;7.61
77728;BMP280;68312;53.502;10.030;2023-04-01T08:23:36;100159.34;;;7.57
77728;BMP280;68312;53.502;10.030;2023-04-01T08:29:19;100169.97;;;7.52
77728;BMP280;68312;53.502;10.030;2023-04-01T08:32:01;100177.78;;;7.44
77728;BMP280;68312;53.502;10.030;2023-04-01T08:34:37;100191.28;;;7.45
77728;BMP280;68312;53.502;10.030;2023-04-01T08:37:11;100185.47;;;7.48
77728;BMP280;68312;53.502;10.030;2023-04-01T08:39:48;100181.00;;;7.49
77728;BMP280;68312;53.502;10.030;2023-04-01T08:48:35;100206.22;;;7.45
77728;BMP280;68312;53.502;10.030;2023-04-01T08:54:39;100209.47;;;7.59
77728;BMP280;68312;53.502;10.030;2023-04-01T09:00:00;100212.81;;;7.43
77728;BMP280;68312;53.502;10.030;2023-04-01T09:03:14;100213.88;;;7.42
77728;BMP280;68312;53.502;10.030;2023-04-01T09:06:35;100228.63;;;7.46
77728;BMP280;68312;53.502;10.030;2023-04-01T09:09:30;100220.19;;;7.41
77728;BMP280;68312;53.502;10.030;2023-04-01T09:12:14;100248.75;;;7.37
77728;BMP280;68312;53.502;10.030;2023-04-01T09:21:46;100252.22;;;7.24
77728;BMP280;68312;53.502;10.030;2023-04-01T09:37:40;100272.41;;;7.32
77728;BMP280;68312;53.502;10.030;2023-04-01T09:43:25;100275.03;;;7.41
77728;BMP280;68312;53.502;10.030;2023-04-01T09:49:42;100287.66;;;7.47
77728;BMP280;68312;53.502;10.030;2023-04-01T09:53:07;100288.25;;;7.44
77728;BMP280;68312;53.502;10.030;2023-04-01T09:56:34;100299.59;;;7.40
77728;BMP280;68312;53.502;10.030;2023-04-01T10:03:33;100307.63;;;7.43
77728;BMP280;68312;53.502;10.030;2023-04-01T10:13:42;100313.63;;;7.44
77728;BMP280;68312;53.502;10.030;2023-04-01T10:17:00;100317.78;;;7.53
77728;BMP280;68312;53.502;10.030;2023-04-01T10:24:02;100326.69;;;7.44
77728;BMP280;68312;53.502;10.030;2023-04-01T10:27:21;100335.94;;;7.49
77728;BMP280;68312;53.502;10.030;2023-04-01T10:30:32;100343.41;;;7.43
77728;BMP280;68312;53.502;10.030;2023-04-01T10:36:53;100352.31;;;7.42
77728;BMP280;68312;53.502;10.030;2023-04-01T10:43:13;100358.19;;;7.47
77728;BMP280;68312;53.502;10.030;2023-04-01T11:02:58;100382.50;;;7.56
77728;BMP280;68312;53.502;10.030;2023-04-01T11:06:07;100377.69;;;7.41
77728;BMP280;68312;53.502;10.030;2023-04-01T11:13:07;100391.94;;;7.65
77728;BMP280;68312;53.502;10.030;2023-04-01T11:19:22;100402.09;;;7.67
77728;BMP280;68312;53.502;10.030;2023-04-01T11:25:42;100406.66;;;7.61
77728;BMP280;68312;53.502;10.030;2023-04-01T11:28:42;100411.72;;;7.58
77728;BMP280;68312;53.502;10.030;2023-04-01T11:34:46;100418.28;;;7.47
77728;BMP280;68312;53.502;10.030;2023-04-01T11:38:17;100421.69;;;7.56
77728;BMP280;68312;53.502;10.030;2023-04-01T11:44:27;100430.97;;;7.62
77728;BMP280;68312;53.502;10.030;2023-04-01T11:47:19;100431.03;;;7.70
77728;BMP280;68312;53.502;10.030;2023-04-01T11:50:20;100436.13;;;7.75
77728;BMP280;68312;53.502;10.030;2023-04-01T11:56:18;100448.13;;;7.76
77728;BMP280;68312;53.502;10.030;2023-04-01T11:58:58;100459.56;;;7.67
77728;BMP280;68312;53.502;10.030;2023-04-01T12:01:49;100461.91;;;7.46
77728;BMP280;68312;53.502;10.030;2023-04-01T12:04:34;100466.19;;;7.43
77728;BMP280;68312;53.502;10.030;2023-04-01T12:07:50;100473.38;;;7.59
77728;BMP280;68312;53.502;10.030;2023-04-01T12:10:44;100465.34;;;7.55
77728;BMP280;68312;53.502;10.030;2023-04-01T12:13:28;100486.38;;;7.50
77728;BMP280;68312;53.502;10.030;2023-04-01T12:16:29;100486.63;;;7.41
77728;BMP280;68312;53.502;10.030;2023-04-01T12:25:31;100502.75;;;7.21
77728;BMP280;68312;53.502;10.030;2023-04-01T12:31:53;100517.75;;;7.15
77728;BMP280;68312;53.502;10.030;2023-04-01T12:44:35;100525.47;;;7.20
77728;BMP280;68312;53.502;10.030;2023-04-01T12:50:38;100550.75;;;6.98
77728;BMP280;68312;53.502;10.030;2023-04-01T12:53:50;100550.34;;;6.91
77728;BMP280;68312;53.502;10.030;2023-04-01T12:57:02;100555.19;;;6.98
77728;BMP280;68312;53.502;10.030;2023-04-01T13:03:27;100567.94;;;6.99
77728;BMP280;68312;53.502;10.030;2023-04-01T13:06:42;100579.84;;;7.05
77728;BMP280;68312;53.502;10.030;2023-04-01T13:10:02;100571.03;;;7.01
77728;BMP280;68312;53.502;10.030;2023-04-01T13:13:00;100584.50;;;6.95
77728;BMP280;68312;53.502;10.030;2023-04-01T13:16:24;100579.16;;;7.00
77728;BMP280;68312;53.502;10.030;2023-04-01T13:19:29;100590.22;;;6.97
77728;BMP280;68312;53.502;10.030;2023-04-01T13:22:33;100594.03;;;6.99
77728;BMP280;68312;53.502;10.030;2023-04-01T13:28:26;100606.72;;;7.06
77728;BMP280;68312;53.502;10.030;2023-04-01T13:37:15;100632.75;;;6.84
77728;BMP280;68312;53.502;10.030;2023-04-01T13:39:58;100631.16;;;6.83
77728;BMP280;68312;53.502;10.030;2023-04-01T13:42:56;100627.97;;;6.73
77728;BMP280;68312;53.502;10.030;2023-04-01T13:45:53;100637.75;;;6.81
77728;BMP280;68312;53.502;10.030;2023-04-01T14:01:32;100658.72;;;6.89
77728;BMP280;68312;53.502;10.030;2023-04-01T14:07:42;100656.31;;;6.92
77728;BMP280;68312;53.502;10.030;2023-04-01T14:10:34;100673.00;;;6.78
77728;BMP280;68312;53.502;10.030;2023-04-01T14:26:01;100695.94;;;6.81
77728;BMP280;68312;53.502;10.030;2023-04-01T14:29:10;100702.41;;;6.83
77728;BMP280;68312;53.502;10.030;2023-04-01T14:32:17;100707.16;;;6.82
77728;BMP280;68312;53.502;10.030;2023-04-01T14:41:08;100717.53;;;6.68
77728;BMP280;68312;53.502;10.030;2023-04-01T14:47:25;100722.03;;;6.50
77728;BMP280;68312;53.502;10.030;2023-04-01T14:50:27;100743.13;;;6.35
77728;BMP280;68312;53.502;10.030;2023-04-01T14:53:14;100733.75;;;6.34
77728;BMP280;68312;53.502;10.030;2023-04-01T14:55:58;100745.22;;;6.33
77728;BMP280;68312;53.502;10.030;2023-04-01T14:58:50;100750.72;;;6.31
77728;BMP280;68312;53.502;10.030;2023-04-01T15:01:44;100750.56;;;6.41
77728;BMP280;68312;53.502;10.030;2023-04-01T15:10:49;100766.22;;;6.41
77728;BMP280;68312;53.502;10.030;2023-04-01T15:16:47;100777.94;;;6.44
77728;BMP280;68312;53.502;10.030;2023-04-01T15:19:39;100784.63;;;6.50
77728;BMP280;68312;53.502;10.030;2023-04-01T15:31:31;100810.19;;;6.11
77728;BMP280;68312;53.502;10.030;2023-04-01T15:34:15;100817.50;;;6.09
77728;BMP280;68312;53.502;10.030;2023-04-01T15:40:02;100840.38;;;5.94
77728;BMP280;68312;53.502;10.030;2023-04-01T15:46:24;100829.69;;;5.95
77728;BMP280;68312;53.502;10.030;2023-04-01T15:49:32;100837.56;;;5.86
77728;BMP280;68312;53.502;10.030;2023-04-01T15:55:38;100851.97;;;5.83
77728;BMP280;68312;53.502;10.030;2023-04-01T15:59:06;100853.56;;;5.79
77728;BMP280;68312;53.502;10.030;2023-04-01T16:02:23;100870.88;;;5.70
77728;BMP280;68312;53.502;10.030;2023-04-01T16:05:30;100885.22;;;5.63
77728;BMP280;68312;53.502;10.030;2023-04-01T16:08:34;100896.44;;;5.63
77728;BMP280;68312;53.502;10.030;2023-04-01T16:15:09;100890.47;;;5.58
77728;BMP280;68312;53.502;10.030;2023-04-01T16:24:38;100904.09;;;5.55
77728;BMP280;68312;53.502;10.030;2023-04-01T16:30:00;100918.53;;;5.38
77728;BMP280;68312;53.502;10.030;2023-04-01T16:36:45;100927.66;;;5.40
77728;BMP280;68312;53.502;10.030;2023-04-01T16:43:16;100947.13;;;5.43
77728;BMP280;68312;53.502;10.030;2023-04-01T16:52:00;100965.78;;;5.22
77728;BMP280;68312;53.502;10.030;2023-04-01T16:54:53;100971.75;;;5.22
77728;BMP280;68312;53.502;10.030;2023-04-01T16:57:31;100969.50;;;5.11
77728;BMP280;68312;53.502;10.030;2023-04-01T17:00:30;100976.78;;;5.04
77728;BMP280;68312;53.502;10.030;2023-04-01T17:03:22;100993.66;;;5.11
77728;BMP280;68312;53.502;10.030;2023-04-01T17:06:11;101007.78;;;5.00
77728;BMP280;68312;53.502;10.030;2023-04-01T17:09:13;101009.88;;;4.98
77728;BMP280;68312;53.502;10.030;2023-04-01T17:14:58;101018.22;;;4.91
77728;BMP280;68312;53.502;10.030;2023-04-01T17:20:50;101026.56;;;4.88
77728;BMP280;68312;53.502;10.030;2023-04-01T17:27:30;101051.84;;;4.77
77728;BMP280;68312;53.502;10.030;2023-04-01T17:36:21;101074.69;;;4.85
77728;BMP280;68312;53.502;10.030;2023-04-01T17:42:40;101087.72;;;4.80
77728;BMP280;68312;53.502;10.030;2023-04-01T17:45:36;101086.91;;;4.85
77728;BMP280;68312;53.502;10.030;2023-04-01T17:48:42;101097.09;;;4.76
77728;BMP280;68312;53.502;10.030;2023-04-01T17:54:36;101105.38;;;4.83
77728;BMP280;68312;53.502;10.030;2023-04-01T18:00:35;101119.97;;;4.79
77728;BMP280;68312;53.502;10.030;2023-04-01T18:03:41;101121.78;;;4.79
77728;BMP280;68312;53.502;10.030;2023-04-01T18:12:36;101142.63;;;4.74
77728;BMP280;68312;53.502;10.030;2023-04-01T18:16:24;101155.63;;;4.74
77728;BMP280;68312;53.502;10.030;2023-04-01T18:19:14;101164.19;;;4.84
77728;BMP280;68312;53.502;10.030;2023-04-01T18:22:08;101175.16;;;4.76
77728;BMP280;68312;53.502;10.030;2023-04-01T18:25:04;101177.75;;;4.81
77728;BMP280;68312;53.502;10.030;2023-04-01T18:27:47;101185.00;;;4.84
77728;BMP280;68312;53.502;10.030;2023-04-01T18:30:28;101192.59;;;4.76
77728;BMP280;68312;53.502;10.030;2023-04-01T18:33:03;101203.75;;;4.81
77728;BMP280;68312;53.502;10.030;2023-04-01T18:35:56;101211.28;;;4.68
77728;BMP280;68312;53.502;10.030;2023-04-01T18:39:08;101211.03;;;4.69
77728;BMP280;68312;53.502;10.030;2023-04-01T18:41:52;101216.50;;;4.68
77728;BMP280;68312;53.502;10.030;2023-04-01T18:44:45;101222.75;;;4.67
77728;BMP280;68312;53.502;10.030;2023-04-01T18:47:38;101227.41;;;4.75
77728;BMP280;68312;53.502;10.030;2023-04-01T18:50:37;101227.41;;;4.70
77728;BMP280;68312;53.502;10.030;2023-04-01T18:53:30;101248.47;;;4.54
77728;BMP280;68312;53.502;10.030;2023-04-01T18:59:08;101257.84;;;4.55
77728;BMP280;68312;53.502;10.030;2023-04-01T19:05:11;101264.34;;;4.52
77728;BMP280;68312;53.502;10.030;2023-04-01T19:07:53;101271.09;;;4.48
77728;BMP280;68312;53.502;10.030;2023-04-01T19:10:37;101273.69;;;4.43
77728;BMP280;68312;53.502;10.030;2023-04-01T19:13:27;101283.28;;;4.43
77728;BMP280;68312;53.502;10.030;2023-04-01T19:16:21;101287.19;;;4.40
77728;BMP280;68312;53.502;10.030;2023-04-01T19:22:42;101299.41;;;4.40
77728;BMP280;68312;53.502;10.030;2023-04-01T19:25:40;101313.44;;;4.34
77728;BMP280;68312;53.502;10.030;2023-04-01T19:28:19;101314.97;;;4.30
77728;BMP280;68312;53.502;10.030;2023-04-01T19:31:15;101319.13;;;4.31
77728;BMP280;68312;53.502;10.030;2023-04-01T19:34:19;101325.34;;;4.25
77728;BMP280;68312;53.502;10.030;2023-04-01T19:37:01;101318.34;;;4.21
77728;BMP280;68312;53.502;10.030;2023-04-01T19:39:45;101326.59;;;4.18
77728;BMP280;68312;53.502;10.030;2023-04-01T19:46:48;101343.47;;;4.10
77728;BMP280;68312;53.502;10.030;2023-04-01T19:52:29;101358.97;;;3.96
77728;BMP280;68312;53.502;10.030;2023-04-01T20:00:51;101375.03;;;3.88
77728;BMP280;68312;53.502;10.030;2023-04-01T20:03:35;101376.84;;;3.82
77728;BMP280;68312;53.502;10.030;2023-04-01T20:06:18;101379.09;;;3.74
77728;BMP280;68312;53.502;10.030;2023-04-01T20:15:45;101404.97;;;3.59
77728;BMP280;68312;53.502;10.030;2023-04-01T20:18:45;101422.53;;;3.52
77728;BMP280;68312;53.502;10.030;2023-04-01T20:21:45;101427.34;;;3.39
77728;BMP280;68312;53.502;10.030;2023-04-01T20:24:45;101426.28;;;3.35
77728;BMP280;68312;53.502;10.030;2023-04-01T20:29:53;101449.22;;;3.22
77728;BMP280;68312;53.502;10.030;2023-04-01T20:33:19;101460.09;;;3.19
77728;BMP280;68312;53.502;10.030;2023-04-01T20:39:08;101461.88;;;3.13
77728;BMP280;68312;53.502;10.030;2023-04-01T20:42:27;101463.06;;;3.06
77728;BMP280;68312;53.502;10.030;2023-04-01T20:45:34;101468.38;;;2.95
77728;BMP280;68312;53.502;10.030;2023-04-01T20:49:10;101473.78;;;2.93
77728;BMP280;68312;53.502;10.030;2023-04-01T20:51:58;101478.75;;;2.95
77728;BMP280;68312;53.502;10.030;2023-04-01T20:55:13;101483.63;;;2.91
77728;BMP280;68312;53.502;10.030;2023-04-01T21:08:18;101518.13;;;2.70
77728;BMP280;68312;53.502;10.030;2023-04-01T21:11:33;101516.16;;;2.99
77728;BMP280;68312;53.502;10.030;2023-04-01T21:24:02;101542.47;;;2.69
77728;BMP280;68312;53.502;10.030;2023-04-01T21:27:39;101539.31;;;2.67
77728;BMP280;68312;53.502;10.030;2023-04-01T21:30:31;101545.78;;;2.65
77728;BMP280;68312;53.502;10.030;2023-04-01T21:33:44;101542.25;;;2.55
77728;BMP280;68312;53.502;10.030;2023-04-01T21:36:58;101549.78;;;2.56
77728;BMP280;68312;53.502;10.030;2023-04-01T21:40:35;101554.59;;;2.48
77728;BMP280;68312;53.502;10.030;2023-04-01T21:46:54;101569.81;;;2.44
77728;BMP280;68312;53.502;10.030;2023-04-01T21:56:14;101576.88;;;2.33
77728;BMP280;68312;53.502;10.030;2023-04-01T22:02:41;101594.13;;;2.27
77728;BMP280;68312;53.502;10.030;2023-04-01T22:06:08;101605.22;;;2.23
77728;BMP280;68312;53.502;10.030;2023-04-01T22:08:52;101608.53;;;2.18